createdAt,value
2024-04-22T00:00:48.342Z,0.00
2024-04-22T00:01:48.328Z,0.00
2024-04-22T00:02:48.390Z,0.00
2024-04-22T00:03:48.229Z,0.00
2024-04-22T00:04:48.240Z,0.00
2024-04-22T00:05:48.211Z,0.00
2024-04-22T00:06:48.337Z,0.00
2024-04-22T00:07:48.201Z,0.00
2024-04-22T00:08:48.186Z,0.00
2024-04-22T00:09:48.173Z,0.00
2024-04-22T00:10:48.212Z,0.00
2024-04-22T00:11:48.214Z,0.00
2024-04-22T00:12:48.152Z,0.00
2024-04-22T00:13:48.176Z,0.00
2024-04-22T00:14:48.129Z,0.00
2024-04-22T00:15:48.136Z,0.00
2024-04-22T00:16:48.193Z,0.00
2024-04-22T00:17:48.172Z,0.00
2024-04-22T00:18:48.114Z,0.00
2024-04-22T00:19:48.362Z,0.00
2024-04-22T00:20:48.096Z,0.00
2024-04-22T00:21:48.079Z,0.00
2024-04-22T00:22:48.086Z,0.00
2024-04-22T00:23:48.047Z,0.00
2024-04-22T00:24:48.177Z,0.00
2024-04-22T00:25:48.034Z,0.00
2024-04-22T00:26:48.024Z,0.00
2024-04-22T00:27:48.015Z,0.00
2024-04-22T00:28:48.044Z,0.00
2024-04-22T00:29:48.034Z,0.00
2024-04-22T00:30:48.025Z,0.00
2024-04-22T00:31:48.007Z,0.00
2024-04-22T00:32:48.092Z,0.00
2024-04-22T00:33:47.984Z,0.00
2024-04-22T00:34:47.973Z,0.00
2024-04-22T00:35:47.947Z,0.00
2024-04-22T00:36:47.947Z,0.00
2024-04-22T00:37:48.933Z,0.00
2024-04-22T00:38:47.936Z,0.00
2024-04-22T00:39:47.940Z,0.00
2024-04-22T00:40:47.924Z,0.00
2024-04-22T00:41:47.901Z,0.00
2024-04-22T00:42:47.905Z,0.00
2024-04-22T00:43:47.968Z,0.00
2024-04-22T00:44:47.997Z,0.00
2024-04-22T00:45:47.948Z,0.00
2024-04-22T00:46:47.913Z,0.00
2024-04-22T00:47:47.915Z,0.00
2024-04-22T00:48:47.855Z,0.00
2024-04-22T00:49:47.844Z,0.00
2024-04-22T00:50:47.817Z,0.00
2024-04-22T00:51:47.811Z,0.00
2024-04-22T00:52:47.820Z,0.00
2024-04-22T00:53:47.815Z,0.00
2024-04-22T00:54:47.799Z,0.00
2024-04-22T00:55:47.788Z,0.00
2024-04-22T00:56:47.807Z,0.00
2024-04-22T00:57:47.767Z,0.00
2024-04-22T00:58:47.765Z,0.00
2024-04-22T00:59:47.755Z,0.00
2024-04-22T01:00:47.765Z,0.00
2024-04-22T01:01:47.821Z,0.00
2024-04-22T01:02:47.744Z,0.00
2024-04-22T01:03:47.736Z,0.00
2024-04-22T01:04:47.801Z,0.00
2024-04-22T01:05:47.681Z,0.00
2024-04-22T01:06:47.692Z,0.00
2024-04-22T01:07:47.733Z,0.00
2024-04-22T01:08:47.657Z,0.00
2024-04-22T01:09:47.649Z,0.00
2024-04-22T01:10:47.731Z,0.00
2024-04-22T01:11:47.697Z,0.00
2024-04-22T01:12:47.615Z,0.00
2024-04-22T01:13:47.650Z,0.00
2024-04-22T01:14:47.607Z,0.00
2024-04-22T01:15:47.598Z,0.00
2024-04-22T01:16:47.633Z,0.00
2024-04-22T01:17:47.648Z,0.00
2024-04-22T01:18:47.563Z,0.00
2024-04-22T01:19:47.603Z,0.00
2024-04-22T01:21:20.021Z,0.00
2024-04-22T01:21:47.547Z,0.00
2024-04-22T01:22:47.592Z,0.00
2024-04-22T01:23:47.525Z,0.00
2024-04-22T01:24:47.516Z,0.00
2024-04-22T01:25:47.549Z,0.00
2024-04-22T01:26:47.510Z,0.00
2024-04-22T01:27:47.489Z,0.00
2024-04-22T01:28:47.572Z,0.00
2024-04-22T01:29:47.499Z,0.00
2024-04-22T01:30:47.472Z,0.00
2024-04-22T01:31:47.557Z,0.00
2024-04-22T01:32:47.469Z,0.00
2024-04-22T01:33:47.435Z,0.00
2024-04-22T01:34:47.478Z,0.00
2024-04-22T01:35:47.512Z,0.00
2024-04-22T01:36:47.414Z,0.00
2024-04-22T01:37:47.435Z,0.00
2024-04-22T01:38:47.387Z,0.00
2024-04-22T01:39:47.400Z,0.00
2024-04-22T01:40:47.414Z,0.00
2024-04-22T01:41:47.366Z,0.00
2024-04-22T01:42:47.356Z,0.00
2024-04-22T01:43:47.367Z,0.00
2024-04-22T01:44:47.354Z,0.00
2024-04-22T01:45:47.371Z,0.00
2024-04-22T01:46:47.372Z,0.00
2024-04-22T01:47:47.341Z,0.00
2024-04-22T01:48:47.306Z,0.00
2024-04-22T01:49:47.333Z,0.00
2024-04-22T01:50:47.305Z,0.00
2024-04-22T01:51:47.321Z,0.00
2024-04-22T01:52:47.320Z,0.00
2024-04-22T01:53:47.257Z,0.00
2024-04-22T01:54:47.296Z,0.00
2024-04-22T01:55:47.273Z,0.00
2024-04-22T01:56:47.231Z,0.00
2024-04-22T01:57:47.240Z,0.00
2024-04-22T01:58:47.255Z,0.00
2024-04-22T01:59:47.248Z,0.00
2024-04-22T02:00:47.215Z,0.00
2024-04-22T02:01:47.229Z,0.00
2024-04-22T02:02:47.288Z,0.00
2024-04-22T02:03:47.243Z,0.00
2024-04-22T02:04:47.172Z,0.00
2024-04-22T02:05:47.147Z,0.00
2024-04-22T02:06:47.146Z,0.00
2024-04-22T02:07:47.245Z,0.00
2024-04-22T02:08:47.152Z,0.00
2024-04-22T02:09:47.127Z,0.00
2024-04-22T02:10:47.237Z,0.00
2024-04-22T02:11:47.138Z,0.00
2024-04-22T02:12:47.100Z,0.00
2024-04-22T02:13:47.171Z,0.00
2024-04-22T02:14:47.072Z,0.00
2024-04-22T02:15:47.060Z,0.00
2024-04-22T02:16:47.161Z,0.00
2024-04-22T02:17:47.151Z,0.00
2024-04-22T02:18:47.042Z,0.00
2024-04-22T02:19:47.062Z,0.00
2024-04-22T02:20:47.019Z,0.00
2024-04-22T02:21:47.009Z,0.00
2024-04-22T02:22:47.047Z,0.00
2024-04-22T02:23:47.010Z,0.00
2024-04-22T02:24:47.008Z,0.00
2024-04-22T02:25:47.046Z,0.00
2024-04-22T02:26:47.003Z,0.00
2024-04-22T02:27:47.050Z,0.00
2024-04-22T02:28:46.976Z,0.00
2024-04-22T02:29:47.944Z,0.00
2024-04-22T02:30:46.939Z,0.00
2024-04-22T02:31:46.979Z,0.00
2024-04-22T02:32:46.993Z,0.00
2024-04-22T02:33:46.911Z,0.00
2024-04-22T02:34:46.980Z,0.00
2024-04-22T02:35:46.893Z,0.00
2024-04-22T02:36:46.898Z,0.00
2024-04-22T02:37:46.893Z,0.00
2024-04-22T02:38:46.887Z,0.00
2024-04-22T02:39:46.853Z,0.00
2024-04-22T02:40:46.929Z,0.00
2024-04-22T02:41:47.022Z,0.00
2024-04-22T02:42:46.845Z,0.00
2024-04-22T02:43:46.847Z,0.00
2024-04-22T02:44:46.815Z,0.00
2024-04-22T02:45:46.908Z,0.00
2024-04-22T02:46:46.845Z,0.00
2024-04-22T02:47:46.836Z,0.00
2024-04-22T02:48:46.780Z,0.00
2024-04-22T02:49:46.820Z,0.00
2024-04-22T02:50:46.773Z,0.00
2024-04-22T02:51:46.758Z,0.00
2024-04-22T02:52:46.769Z,0.00
2024-04-22T02:53:46.730Z,0.00
2024-04-22T02:54:46.719Z,0.00
2024-04-22T02:55:46.778Z,0.00
2024-04-22T02:56:46.706Z,0.00
2024-04-22T02:57:46.692Z,0.00
2024-04-22T02:58:46.807Z,0.00
2024-04-22T02:59:46.709Z,0.00
2024-04-22T03:00:46.714Z,0.00
2024-04-22T03:01:46.672Z,0.00
2024-04-22T03:02:46.720Z,0.00
2024-04-22T03:03:46.721Z,0.00
2024-04-22T03:04:46.668Z,0.00
2024-04-22T03:05:46.621Z,0.00
2024-04-22T03:06:46.622Z,0.00
2024-04-22T03:07:46.673Z,0.00
2024-04-22T03:08:46.595Z,0.00
2024-04-22T03:09:46.620Z,0.00
2024-04-22T03:10:46.608Z,0.00
2024-04-22T03:11:46.598Z,0.00
2024-04-22T03:12:46.558Z,0.00
2024-04-22T03:13:49.404Z,0.00
2024-04-22T03:14:47.560Z,0.00
2024-04-22T03:15:46.532Z,0.00
2024-04-22T03:16:46.598Z,0.00
2024-04-22T03:17:46.540Z,0.00
2024-04-22T03:18:46.517Z,0.00
2024-04-22T03:19:46.515Z,0.00
2024-04-22T03:20:46.493Z,0.00
2024-04-22T03:21:46.478Z,0.00
2024-04-22T03:22:46.502Z,0.00
2024-04-22T03:23:46.516Z,0.00
2024-04-22T03:24:46.456Z,0.00
2024-04-22T03:25:46.503Z,0.00
2024-04-22T03:26:46.438Z,0.00
2024-04-22T03:27:46.440Z,0.00
2024-04-22T03:28:46.450Z,0.00
2024-04-22T03:29:46.415Z,0.00
2024-04-22T03:30:46.401Z,0.00
2024-04-22T03:31:46.466Z,0.00
2024-04-22T03:32:46.418Z,0.00
2024-04-22T03:33:46.371Z,0.00
2024-04-22T03:34:46.394Z,0.00
2024-04-22T03:35:46.353Z,0.00
2024-04-22T03:36:46.369Z,0.00
2024-04-22T03:37:46.400Z,0.00
2024-04-22T03:38:46.352Z,0.00
2024-04-22T03:39:46.321Z,0.00
2024-04-22T03:40:46.319Z,0.00
2024-04-22T03:41:46.312Z,0.00
2024-04-22T03:42:46.310Z,0.00
2024-04-22T03:43:46.321Z,0.00
2024-04-22T03:44:46.279Z,4.00
2024-04-22T03:45:46.273Z,0.00
2024-04-22T03:46:46.349Z,0.00
2024-04-22T03:47:46.270Z,4.00
2024-04-22T03:48:46.248Z,4.00
2024-04-22T03:49:46.275Z,0.00
2024-04-22T03:50:46.224Z,4.00
2024-04-22T03:51:46.247Z,4.00
2024-04-22T03:52:46.267Z,0.00
2024-04-22T03:53:46.206Z,4.00
2024-04-22T03:54:46.192Z,4.00
2024-04-22T03:55:46.219Z,4.00
2024-04-22T03:56:46.203Z,4.00
2024-04-22T03:57:49.772Z,4.00
2024-04-22T03:58:46.198Z,8.00
2024-04-22T03:59:46.217Z,4.00
2024-04-22T04:00:46.367Z,8.00
2024-04-22T04:01:46.241Z,8.00
2024-04-22T04:02:46.134Z,8.00
2024-04-22T04:03:46.163Z,12.00
2024-04-22T04:04:46.197Z,12.00
2024-04-22T04:05:46.155Z,12.00
2024-04-22T04:06:46.084Z,16.00
2024-04-22T04:07:46.154Z,20.00
2024-04-22T04:08:46.071Z,20.00
2024-04-22T04:09:46.079Z,20.00
2024-04-22T04:10:46.133Z,28.00
2024-04-22T04:11:46.083Z,28.00
2024-04-22T04:12:46.036Z,32.00
2024-04-22T04:13:46.032Z,32.00
2024-04-22T04:14:46.066Z,36.00
2024-04-22T04:15:46.009Z,44.00
2024-04-22T04:16:46.041Z,44.00
2024-04-22T04:17:46.013Z,48.00
2024-04-22T04:18:45.969Z,52.00
2024-04-22T04:19:46.026Z,60.00
2024-04-22T04:20:45.958Z,64.00
2024-04-22T04:21:45.953Z,68.00
2024-04-22T04:22:45.965Z,76.00
2024-04-22T04:23:45.925Z,84.00
2024-04-22T04:24:45.938Z,84.00
2024-04-22T04:25:45.988Z,96.00
2024-04-22T04:26:45.900Z,100.00
2024-04-22T04:27:45.890Z,108.00
2024-04-22T04:28:48.714Z,112.00
2024-04-22T04:29:46.888Z,116.00
2024-04-22T04:30:45.860Z,124.00
2024-04-22T04:31:45.914Z,128.00
2024-04-22T04:32:45.906Z,132.00
2024-04-22T04:33:45.860Z,144.00
2024-04-22T04:34:45.842Z,156.00
2024-04-22T04:35:45.819Z,168.00
2024-04-22T04:36:45.831Z,180.00
2024-04-22T04:37:45.812Z,188.00
2024-04-22T04:38:46.017Z,200.00
2024-04-22T04:39:45.778Z,208.00
2024-04-22T04:40:45.832Z,220.00
2024-04-22T04:41:45.756Z,232.00
2024-04-22T04:42:45.761Z,240.00
2024-04-22T04:43:45.862Z,248.00
2024-04-22T04:44:45.734Z,248.00
2024-04-22T04:45:45.724Z,252.00
2024-04-22T04:46:45.761Z,248.00
2024-04-22T04:47:45.814Z,252.00
2024-04-22T04:48:45.736Z,252.00
2024-04-22T04:49:45.732Z,256.00
2024-04-22T04:50:45.678Z,260.00
2024-04-22T04:51:45.668Z,264.00
2024-04-22T04:52:45.712Z,276.00
2024-04-22T04:53:45.651Z,288.00
2024-04-22T04:54:45.644Z,296.00
2024-04-22T04:55:45.672Z,304.00
2024-04-22T04:56:45.642Z,308.00
2024-04-22T04:57:45.639Z,312.00
2024-04-22T04:58:45.668Z,316.00
2024-04-22T04:59:45.597Z,324.00
2024-04-22T05:00:45.653Z,332.00
2024-04-22T05:01:45.702Z,336.00
2024-04-22T05:02:45.636Z,344.00
2024-04-22T05:03:45.591Z,348.00
2024-04-22T05:04:45.642Z,340.00
2024-04-22T05:05:45.546Z,336.00
2024-04-22T05:06:45.555Z,336.00
2024-04-22T05:07:45.556Z,332.00
2024-04-22T05:08:45.529Z,336.00
2024-04-22T05:09:45.515Z,340.00
2024-04-22T05:10:45.632Z,340.00
2024-04-22T05:11:45.541Z,344.00
2024-04-22T05:12:45.483Z,356.00
2024-04-22T05:13:45.538Z,364.00
2024-04-22T05:14:45.495Z,376.00
2024-04-22T05:15:45.486Z,392.00
2024-04-22T05:16:45.480Z,416.00
2024-04-22T05:17:45.528Z,452.00
2024-04-22T05:18:45.554Z,500.00
2024-04-22T05:19:45.589Z,544.00
2024-04-22T05:20:45.427Z,576.00
2024-04-22T05:21:45.433Z,592.00
2024-04-22T05:22:45.435Z,604.00
2024-04-22T05:23:45.398Z,600.00
2024-04-22T05:24:45.461Z,596.00
2024-04-22T05:25:45.407Z,596.00
2024-04-22T05:26:45.351Z,572.00
2024-04-22T05:27:45.358Z,556.00
2024-04-22T05:28:45.412Z,564.00
2024-04-22T05:29:45.339Z,604.00
2024-04-22T05:30:45.330Z,716.00
2024-04-22T05:31:45.330Z,796.00
2024-04-22T05:32:45.375Z,852.00
2024-04-22T05:33:45.288Z,888.00
2024-04-22T05:34:45.445Z,920.00
2024-04-22T05:35:45.272Z,932.00
2024-04-22T05:36:45.263Z,948.00
2024-04-22T05:37:45.296Z,968.00
2024-04-22T05:38:45.373Z,972.00
2024-04-22T05:39:48.612Z,948.00
2024-04-22T05:40:46.294Z,940.00
2024-04-22T05:41:45.218Z,972.00
2024-04-22T05:42:45.225Z,996.00
2024-04-22T05:43:45.334Z,964.00
2024-04-22T05:44:45.193Z,920.00
2024-04-22T05:45:45.178Z,888.00
2024-04-22T05:46:45.239Z,828.00
2024-04-22T05:47:45.239Z,824.00
2024-04-22T05:48:45.166Z,808.00
2024-04-22T05:49:45.184Z,748.00
2024-04-22T05:50:45.130Z,680.00
2024-04-22T05:51:45.120Z,672.00
2024-04-22T05:52:45.179Z,680.00
2024-04-22T05:53:45.115Z,728.00
2024-04-22T05:54:45.101Z,788.00
2024-04-22T05:55:45.143Z,844.00
2024-04-22T05:56:45.088Z,892.00
2024-04-22T05:57:47.184Z,900.00
2024-04-22T05:58:45.121Z,928.00
2024-04-22T05:59:45.071Z,968.00
2024-04-22T06:00:45.059Z,1000.00
2024-04-22T06:01:45.084Z,1024.00
2024-04-22T06:02:45.077Z,1040.00
2024-04-22T06:03:45.028Z,1036.00
2024-04-22T06:04:45.062Z,1044.00
2024-04-22T06:05:45.002Z,1080.00
2024-04-22T06:06:45.011Z,1100.00
2024-04-22T06:07:45.048Z,1112.00
2024-04-22T06:08:44.979Z,1116.00
2024-04-22T06:09:44.971Z,1112.00
2024-04-22T06:10:44.993Z,1116.00
2024-04-22T06:11:57.178Z,1104.00
2024-04-22T06:12:46.945Z,1088.00
2024-04-22T06:13:44.980Z,1080.00
2024-04-22T06:14:44.939Z,1064.00
2024-04-22T06:15:44.920Z,1056.00
2024-04-22T06:16:45.002Z,1076.00
2024-04-22T06:17:44.930Z,1108.00
2024-04-22T06:18:44.893Z,1136.00
2024-04-22T06:19:44.987Z,1152.00
2024-04-22T06:20:44.877Z,1160.00
2024-04-22T06:21:44.888Z,1156.00
2024-04-22T06:22:44.992Z,1168.00
2024-04-22T06:23:45.287Z,1168.00
2024-04-22T06:24:44.839Z,1164.00
2024-04-22T06:25:44.884Z,1164.00
2024-04-22T06:26:44.824Z,1248.00
2024-04-22T06:27:44.812Z,1176.00
2024-04-22T06:28:44.858Z,1192.00
2024-04-22T06:29:44.800Z,1224.00
2024-04-22T06:30:44.802Z,1240.00
2024-04-22T06:31:44.837Z,1264.00
2024-04-22T06:32:44.857Z,1324.00
2024-04-22T06:33:44.772Z,1396.00
2024-04-22T06:34:44.830Z,1436.00
2024-04-22T06:35:44.753Z,1440.00
2024-04-22T06:36:44.751Z,1456.00
2024-04-22T06:37:44.771Z,1508.00
2024-04-22T06:38:44.714Z,1544.00
2024-04-22T06:39:44.747Z,1616.00
2024-04-22T06:40:44.736Z,1684.00
2024-04-22T06:41:44.750Z,1808.00
2024-04-22T06:42:44.699Z,1944.00
2024-04-22T06:43:44.685Z,2292.00
2024-04-22T06:44:44.679Z,2232.00
2024-04-22T06:45:44.645Z,2244.00
2024-04-22T06:46:44.695Z,2300.00
2024-04-22T06:47:44.729Z,2348.00
2024-04-22T06:48:44.633Z,2388.00
2024-04-22T06:49:44.634Z,2416.00
2024-04-22T06:50:44.608Z,2456.00
2024-04-22T06:51:44.613Z,2492.00
2024-04-22T06:52:44.670Z,2556.00
2024-04-22T06:53:44.606Z,2664.00
2024-04-22T06:54:44.559Z,2752.00
2024-04-22T06:55:44.604Z,2916.00
2024-04-22T06:56:46.281Z,3152.00
2024-04-22T06:57:45.655Z,3344.00
2024-04-22T06:58:44.587Z,3496.00
2024-04-22T06:59:44.515Z,3232.00
2024-04-22T07:00:44.563Z,3448.00
2024-04-22T07:01:44.550Z,3316.00
2024-04-22T07:02:44.546Z,3400.00
2024-04-22T07:03:44.689Z,3452.00
2024-04-22T07:04:44.613Z,3456.00
2024-04-22T07:05:44.466Z,3412.00
2024-04-22T07:06:44.452Z,3424.00
2024-04-22T07:07:44.485Z,3460.00
2024-04-22T07:08:44.444Z,3520.00
2024-04-22T07:09:44.427Z,3552.00
2024-04-22T07:10:44.537Z,3572.00
2024-04-22T07:11:44.450Z,3596.00
2024-04-22T07:12:44.405Z,3452.00
2024-04-22T07:13:44.419Z,3568.00
2024-04-22T07:14:44.398Z,3332.00
2024-04-22T07:15:44.371Z,3308.00
2024-04-22T07:16:44.474Z,3252.00
2024-04-22T07:17:44.421Z,3368.00
2024-04-22T07:18:44.359Z,3300.00
2024-04-22T07:19:44.401Z,3280.00
2024-04-22T07:21:18.792Z,3520.00
2024-04-22T07:21:44.351Z,3392.00
2024-04-22T07:22:44.939Z,3300.00
2024-04-22T07:23:44.320Z,3288.00
2024-04-22T07:24:54.779Z,3240.00
2024-04-22T07:25:46.330Z,3212.00
2024-04-22T07:26:44.283Z,3144.00
2024-04-22T07:27:44.290Z,3144.00
2024-04-22T07:28:44.306Z,3240.00
2024-04-22T07:29:44.256Z,3284.00
2024-04-22T07:30:44.281Z,3392.00
2024-04-22T07:31:44.334Z,3824.00
2024-04-22T07:32:44.357Z,3856.00
2024-04-22T07:33:44.279Z,3964.00
2024-04-22T07:34:44.235Z,4288.00
2024-04-22T07:35:44.216Z,4432.00
2024-04-22T07:36:44.191Z,4608.00
2024-04-22T07:37:44.404Z,4632.00
2024-04-22T07:38:44.171Z,4708.00
2024-04-22T07:39:44.273Z,4684.00
2024-04-22T07:40:44.210Z,4704.00
2024-04-22T07:41:44.147Z,4524.00
2024-04-22T07:42:44.144Z,4272.00
2024-04-22T07:43:44.224Z,3892.00
2024-04-22T07:44:44.149Z,2900.00
2024-04-22T07:45:44.118Z,2720.00
2024-04-22T07:46:44.278Z,2708.00
2024-04-22T07:47:44.176Z,2592.00
2024-04-22T07:48:44.085Z,2404.00
2024-04-22T07:49:44.145Z,2296.00
2024-04-22T07:50:45.338Z,2228.00
2024-04-22T07:51:44.059Z,2236.00
2024-04-22T07:52:44.100Z,2460.00
2024-04-22T07:53:44.054Z,2916.00
2024-04-22T07:54:44.043Z,3280.00
2024-04-22T07:55:44.062Z,3604.00
2024-04-22T07:56:46.106Z,3948.00
2024-04-22T07:57:44.013Z,4228.00
2024-04-22T07:58:44.145Z,4240.00
2024-04-22T07:59:44.001Z,4144.00
2024-04-22T08:00:44.060Z,4016.00
2024-04-22T08:01:43.996Z,4216.00
2024-04-22T08:02:43.991Z,3924.00
2024-04-22T08:03:43.987Z,3940.00
2024-04-22T08:04:43.960Z,3916.00
2024-04-22T08:05:43.929Z,4036.00
2024-04-22T08:06:43.929Z,4152.00
2024-04-22T08:07:43.980Z,4240.00
2024-04-22T08:08:43.912Z,4276.00
2024-04-22T08:09:43.898Z,3960.00
2024-04-22T08:10:44.017Z,3800.00
2024-04-22T08:11:43.889Z,3616.00
2024-04-22T08:12:43.894Z,3576.00
2024-04-22T08:13:43.995Z,3552.00
2024-04-22T08:14:43.851Z,3500.00
2024-04-22T08:15:43.854Z,3404.00
2024-04-22T08:16:43.918Z,3376.00
2024-04-22T08:17:43.919Z,3348.00
2024-04-22T08:18:43.830Z,3364.00
2024-04-22T08:19:43.855Z,3280.00
2024-04-22T08:20:43.798Z,3116.00
2024-04-22T08:21:43.894Z,2980.00
2024-04-22T08:22:43.855Z,2908.00
2024-04-22T08:23:43.768Z,2816.00
2024-04-22T08:24:43.764Z,2800.00
2024-04-22T08:25:43.770Z,2820.00
2024-04-22T08:26:43.762Z,2904.00
2024-04-22T08:27:43.738Z,3028.00
2024-04-22T08:28:43.770Z,3504.00
2024-04-22T08:29:43.715Z,3696.00
2024-04-22T08:30:43.711Z,3952.00
2024-04-22T08:31:43.822Z,4116.00
2024-04-22T08:32:43.772Z,4096.00
2024-04-22T08:33:43.872Z,4092.00
2024-04-22T08:34:43.778Z,3848.00
2024-04-22T08:35:43.680Z,3692.00
2024-04-22T08:36:43.745Z,3692.00
2024-04-22T08:37:43.734Z,3780.00
2024-04-22T08:38:43.642Z,3964.00
2024-04-22T08:39:43.641Z,3824.00
2024-04-22T08:40:43.661Z,3692.00
2024-04-22T08:41:43.617Z,3792.00
2024-04-22T08:42:43.601Z,3856.00
2024-04-22T08:43:43.711Z,3704.00
2024-04-22T08:44:43.604Z,3764.00
2024-04-22T08:45:43.599Z,3832.00
2024-04-22T08:46:43.635Z,3892.00
2024-04-22T08:47:43.639Z,3964.00
2024-04-22T08:48:43.578Z,4060.00
2024-04-22T08:49:43.890Z,4104.00
2024-04-22T08:50:43.572Z,4224.00
2024-04-22T08:51:43.543Z,4264.00
2024-04-22T08:52:51.367Z,4484.00
2024-04-22T08:53:45.523Z,4576.00
2024-04-22T08:54:43.544Z,4692.00
2024-04-22T08:55:43.557Z,4840.00
2024-04-22T08:56:43.499Z,4788.00
2024-04-22T08:57:43.480Z,4812.00
2024-04-22T08:58:43.497Z,4888.00
2024-04-22T08:59:45.414Z,4736.00
2024-04-22T09:00:43.493Z,4320.00
2024-04-22T09:01:43.465Z,4232.00
2024-04-22T09:02:43.565Z,4100.00
2024-04-22T09:03:43.448Z,3944.00
2024-04-22T09:04:43.530Z,3960.00
2024-04-22T09:05:43.563Z,3956.00
2024-04-22T09:06:43.410Z,3812.00
2024-04-22T09:07:43.427Z,3648.00
2024-04-22T09:08:43.399Z,3548.00
2024-04-22T09:10:00.657Z,3356.00
2024-04-22T09:11:21.185Z,3148.00
2024-04-22T09:12:05.744Z,2920.00
2024-04-22T09:12:45.504Z,2660.00
2024-04-22T09:13:43.482Z,2584.00
2024-04-22T09:14:43.472Z,2612.00
2024-04-22T09:15:43.324Z,2544.00
2024-04-22T09:16:43.366Z,2400.00
2024-04-22T09:17:43.426Z,2164.00
2024-04-22T09:18:43.420Z,1916.00
2024-04-22T09:19:43.392Z,1836.00
2024-04-22T09:20:43.278Z,1892.00
2024-04-22T09:21:43.269Z,1900.00
2024-04-22T09:22:43.318Z,1892.00
2024-04-22T09:23:43.336Z,1892.00
2024-04-22T09:24:43.240Z,1908.00
2024-04-22T09:25:43.305Z,1932.00
2024-04-22T09:26:43.222Z,1904.00
2024-04-22T09:27:44.858Z,2032.00
2024-04-22T09:28:43.302Z,2092.00
2024-04-22T09:29:43.221Z,2132.00
2024-04-22T09:30:43.223Z,2064.00
2024-04-22T09:31:43.367Z,2080.00
2024-04-22T09:32:43.355Z,2084.00
2024-04-22T09:33:43.233Z,2100.00
2024-04-22T09:34:43.234Z,2084.00
2024-04-22T09:35:43.233Z,2168.00
2024-04-22T09:36:43.209Z,2248.00
2024-04-22T09:37:44.437Z,2324.00
2024-04-22T09:38:46.967Z,2416.00
2024-04-22T09:39:44.114Z,2460.00
2024-04-22T09:40:43.124Z,2472.00
2024-04-22T09:41:43.258Z,2540.00
2024-04-22T09:42:43.090Z,2612.00
2024-04-22T09:43:47.945Z,2592.00
2024-04-22T09:44:45.091Z,2692.00
2024-04-22T09:45:43.096Z,2856.00
2024-04-22T09:46:43.074Z,2840.00
2024-04-22T09:47:43.221Z,2848.00
2024-04-22T09:48:43.177Z,2744.00
2024-04-22T09:49:43.133Z,2640.00
2024-04-22T09:50:43.071Z,2520.00
2024-04-22T09:51:43.022Z,2492.00
2024-04-22T09:52:43.072Z,2660.00
2024-04-22T09:53:42.979Z,2764.00
2024-04-22T09:54:42.976Z,2968.00
2024-04-22T09:55:43.108Z,3124.00
2024-04-22T09:56:43.051Z,3256.00
2024-04-22T09:57:43.011Z,3360.00
2024-04-22T09:58:42.978Z,3488.00
2024-04-22T09:59:42.939Z,3600.00
2024-04-22T10:00:42.949Z,3696.00
2024-04-22T10:01:43.028Z,3788.00
2024-04-22T10:02:43.068Z,3892.00
2024-04-22T10:03:42.989Z,4020.00
2024-04-22T10:04:43.009Z,4180.00
2024-04-22T10:05:43.063Z,4404.00
2024-04-22T10:06:42.932Z,4724.00
2024-04-22T10:07:43.057Z,5224.00
2024-04-22T10:08:42.854Z,5940.00
2024-04-22T10:09:42.850Z,6044.00
2024-04-22T10:10:43.059Z,5856.00
2024-04-22T10:11:42.990Z,5760.00
2024-04-22T10:12:42.965Z,5764.00
2024-04-22T10:13:42.889Z,5836.00
2024-04-22T10:14:42.831Z,6024.00
2024-04-22T10:15:42.864Z,6328.00
2024-04-22T10:16:42.815Z,6604.00
2024-04-22T10:17:42.945Z,6720.00
2024-04-22T10:18:42.964Z,6640.00
2024-04-22T10:19:42.921Z,6412.00
2024-04-22T10:20:42.768Z,6304.00
2024-04-22T10:21:42.742Z,6524.00
2024-04-22T10:22:42.784Z,9900.00
2024-04-22T10:23:42.745Z,13240.00
2024-04-22T10:24:42.729Z,14000.00
2024-04-22T10:25:42.742Z,14500.00
2024-04-22T10:26:52.772Z,13592.00
2024-04-22T10:27:44.817Z,13324.00
2024-04-22T10:28:42.732Z,15520.00
2024-04-22T10:29:43.217Z,15232.00
2024-04-22T10:30:42.668Z,17056.00
2024-04-22T10:31:42.686Z,18432.00
2024-04-22T10:32:42.679Z,21728.00
2024-04-22T10:33:42.696Z,24128.00
2024-04-22T10:34:42.625Z,24864.00
2024-04-22T10:35:42.609Z,24800.00
2024-04-22T10:36:42.607Z,23456.00
2024-04-22T10:37:42.663Z,23584.00
2024-04-22T10:38:42.604Z,23648.00
2024-04-22T10:39:42.579Z,24416.00
2024-04-22T10:40:42.603Z,24800.00
2024-04-22T10:41:42.559Z,24864.00
2024-04-22T10:42:42.568Z,23552.00
2024-04-22T10:43:42.552Z,21056.00
2024-04-22T10:44:42.528Z,21824.00
2024-04-22T10:45:42.519Z,22432.00
2024-04-22T10:46:42.566Z,24096.00
2024-04-22T10:47:42.678Z,23808.00
2024-04-22T10:48:42.580Z,25920.00
2024-04-22T10:49:42.683Z,27360.00
2024-04-22T10:50:42.491Z,27360.00
2024-04-22T10:51:42.478Z,25856.00
2024-04-22T10:52:42.517Z,24416.00
2024-04-22T10:53:42.460Z,21856.00
2024-04-22T10:54:42.456Z,20000.00
2024-04-22T10:55:42.479Z,20576.00
2024-04-22T10:56:42.455Z,21440.00
2024-04-22T10:57:42.433Z,22432.00
2024-04-22T10:58:42.471Z,21792.00
2024-04-22T10:59:42.383Z,20384.00
2024-04-22T11:00:42.427Z,19744.00
2024-04-22T11:01:42.493Z,20480.00
2024-04-22T11:02:42.525Z,20672.00
2024-04-22T11:03:42.392Z,18912.00
2024-04-22T11:04:42.395Z,22688.00
2024-04-22T11:05:42.454Z,23040.00
2024-04-22T11:06:42.326Z,23328.00
2024-04-22T11:07:42.321Z,22144.00
2024-04-22T11:08:42.295Z,19456.00
2024-04-22T11:09:42.288Z,19040.00
2024-04-22T11:10:43.858Z,18976.00
2024-04-22T11:11:42.438Z,18656.00
2024-04-22T11:12:42.277Z,18144.00
2024-04-22T11:13:42.320Z,17376.00
2024-04-22T11:14:42.233Z,16896.00
2024-04-22T11:15:42.251Z,16672.00
2024-04-22T11:16:42.273Z,15840.00
2024-04-22T11:17:42.236Z,15552.00
2024-04-22T11:18:42.232Z,15904.00
2024-04-22T11:19:42.251Z,16928.00
2024-04-22T11:20:42.173Z,19072.00
2024-04-22T11:21:42.184Z,21184.00
2024-04-22T11:22:42.206Z,21440.00
2024-04-22T11:23:42.158Z,21344.00
2024-04-22T11:24:42.136Z,20704.00
2024-04-22T11:25:42.185Z,20512.00
2024-04-22T11:26:42.145Z,20992.00
2024-04-22T11:27:42.122Z,20864.00
2024-04-22T11:28:42.125Z,20256.00
2024-04-22T11:29:42.096Z,20192.00
2024-04-22T11:30:42.530Z,20512.00
2024-04-22T11:31:42.129Z,20672.00
2024-04-22T11:32:42.117Z,22624.00
2024-04-22T11:33:42.078Z,25952.00
2024-04-22T11:34:42.059Z,28768.00
2024-04-22T11:35:42.154Z,29600.00
2024-04-22T11:36:42.025Z,29504.00
2024-04-22T11:37:42.062Z,28288.00
2024-04-22T11:38:42.014Z,29472.00
2024-04-22T11:39:42.005Z,27552.00
2024-04-22T11:40:42.044Z,28640.00
2024-04-22T11:41:41.975Z,28640.00
2024-04-22T11:42:41.970Z,27680.00
2024-04-22T11:43:41.971Z,27520.00
2024-04-22T11:44:41.961Z,28128.00
2024-04-22T11:45:41.956Z,28480.00
2024-04-22T11:46:42.070Z,26944.00
2024-04-22T11:47:42.043Z,26336.00
2024-04-22T11:48:41.927Z,22368.00
2024-04-22T11:49:42.038Z,5360.00
2024-04-22T11:50:41.910Z,5820.00
2024-04-22T11:51:41.873Z,6692.00
2024-04-22T11:52:41.902Z,27584.00
2024-04-22T11:53:41.880Z,20864.00
2024-04-22T11:54:41.962Z,4504.00
2024-04-22T11:55:41.881Z,3876.00
2024-04-22T11:56:41.824Z,3636.00
2024-04-22T11:57:41.807Z,3476.00
2024-04-22T11:58:41.893Z,3544.00
2024-04-22T11:59:42.803Z,3688.00
2024-04-22T12:00:41.810Z,3812.00
2024-04-22T12:01:41.789Z,4364.00
2024-04-22T12:02:41.761Z,6940.00
2024-04-22T12:03:41.757Z,24352.00
2024-04-22T12:04:41.973Z,21504.00
2024-04-22T12:05:41.801Z,20288.00
2024-04-22T12:06:41.723Z,19360.00
2024-04-22T12:07:41.838Z,9664.00
2024-04-22T12:08:41.839Z,3756.00
2024-04-22T12:09:41.690Z,3448.00
2024-04-22T12:10:41.749Z,3428.00
2024-04-22T12:11:41.699Z,3600.00
2024-04-22T12:12:41.674Z,3492.00
2024-04-22T12:13:41.731Z,3628.00
2024-04-22T12:14:41.715Z,3664.00
2024-04-22T12:15:41.654Z,5144.00
2024-04-22T12:16:41.702Z,12632.00
2024-04-22T12:17:41.669Z,17408.00
2024-04-22T12:18:41.631Z,15680.00
2024-04-22T12:19:41.627Z,14620.00
2024-04-22T12:20:42.327Z,15104.00
2024-04-22T12:21:41.586Z,15584.00
2024-04-22T12:22:41.644Z,15104.00
2024-04-22T12:23:41.558Z,14568.00
2024-04-22T12:24:41.553Z,13764.00
2024-04-22T12:25:41.569Z,12776.00
2024-04-22T12:26:41.538Z,10056.00
2024-04-22T12:27:41.580Z,11684.00
2024-04-22T12:28:41.589Z,14304.00